sensor_id;sensor_type;location;lat;lon;timestamp;temperature;humidity
7704;DHT22;3894;49.700;10.770;2023-04-01T00:00:19;8.10;99.90
7704;DHT22;3894;49.700;10.770;2023-04-01T00:02:45;8.20;99.90
7704;DHT22;3894;49.700;10.770;2023-04-01T00:05:11;8.20;99.90
7704;DHT22;3894;49.700;10.770;2023-04-01T00:07:38;8.20;99.90
7704;DHT22;3894;49.700;10.770;2023-04-01T00:10:06;8.20;99.90
7704;DHT22;3894;49.700;10.770;2023-04-01T00:12:32;8.20;99.90
7704;DHT22;3894;49.700;10.770;2023-04-01T00:14:58;8.20;99.90
7704;DHT22;3894;49.700;10.770;2023-04-01T00:17:24;8.30;99.90
7704;DHT22;3894;49.700;10.770;2023-04-01T00:19:50;8.30;99.90
7704;DHT22;3894;49.700;10.770;2023-04-01T00:22:16;8.30;99.90
7704;DHT22;3894;49.700;10.770;2023-04-01T00:24:42;8.30;99.90
7704;DHT22;3894;49.700;10.770;2023-04-01T00:27:07;8.30;99.90
7704;DHT22;3894;49.700;10.770;2023-04-01T00:29:33;8.30;99.90
7704;DHT22;3894;49.700;10.770;2023-04-01T00:31:59;8.40;99.90
7704;DHT22;3894;49.700;10.770;2023-04-01T00:34:25;8.40;99.90
7704;DHT22;3894;49.700;10.770;2023-04-01T00:36:51;8.40;99.90
7704;DHT22;3894;49.700;10.770;2023-04-01T00:39:17;8.50;99.90
7704;DHT22;3894;49.700;10.770;2023-04-01T00:41:43;8.50;99.90
7704;DHT22;3894;49.700;10.770;2023-04-01T00:44:21;8.50;99.90
7704;DHT22;3894;49.700;10.770;2023-04-01T00:46:47;8.50;99.90
7704;DHT22;3894;49.700;10.770;2023-04-01T00:49:14;8.50;99.90
7704;DHT22;3894;49.700;10.770;2023-04-01T00:51:41;8.50;99.90
7704;DHT22;3894;49.700;10.770;2023-04-01T00:54:08;8.50;99.90
7704;DHT22;3894;49.700;10.770;2023-04-01T00:56:37;8.50;99.90
7704;DHT22;3894;49.700;10.770;2023-04-01T00:59:07;8.50;99.90
7704;DHT22;3894;49.700;10.770;2023-04-01T01:01:35;8.50;99.90
7704;DHT22;3894;49.700;10.770;2023-04-01T01:04:01;8.50;99.90
7704;DHT22;3894;49.700;10.770;2023-04-01T01:07:32;8.50;99.90
7704;DHT22;3894;49.700;10.770;2023-04-01T01:15:30;8.60;99.90
7704;DHT22;3894;49.700;10.770;2023-04-01T01:31:56;8.70;99.90
7704;DHT22;3894;49.700;10.770;2023-04-01T01:37:16;8.60;99.90
7704;DHT22;3894;49.700;10.770;2023-04-01T01:39:44;8.60;99.90
7704;DHT22;3894;49.700;10.770;2023-04-01T01:42:15;8.60;99.90
7704;DHT22;3894;49.700;10.770;2023-04-01T01:44:44;8.70;99.90
7704;DHT22;3894;49.700;10.770;2023-04-01T01:47:11;8.80;99.90
7704;DHT22;3894;49.700;10.770;2023-04-01T01:49:39;8.80;99.90
7704;DHT22;3894;49.700;10.770;2023-04-01T01:52:06;8.90;99.90
7704;DHT22;3894;49.700;10.770;2023-04-01T01:54:32;8.90;99.90
7704;DHT22;3894;49.700;10.770;2023-04-01T01:57:07;8.90;99.90
7704;DHT22;3894;49.700;10.770;2023-04-01T01:59:36;8.90;99.90
7704;DHT22;3894;49.700;10.770;2023-04-01T02:02:03;8.90;99.90
7704;DHT22;3894;49.700;10.770;2023-04-01T02:04:35;8.90;99.90
7704;DHT22;3894;49.700;10.770;2023-04-01T02:07:03;8.90;99.90
7704;DHT22;3894;49.700;10.770;2023-04-01T02:09:30;9.00;99.90
7704;DHT22;3894;49.700;10.770;2023-04-01T02:11:58;9.00;99.90
7704;DHT22;3894;49.700;10.770;2023-04-01T02:14:28;9.00;99.90
7704;DHT22;3894;49.700;10.770;2023-04-01T02:17:02;9.00;99.90
7704;DHT22;3894;49.700;10.770;2023-04-01T02:19:34;9.00;99.90
7704;DHT22;3894;49.700;10.770;2023-04-01T02:22:04;9.00;99.90
7704;DHT22;3894;49.700;10.770;2023-04-01T02:24:33;9.00;99.90
7704;DHT22;3894;49.700;10.770;2023-04-01T02:27:00;9.00;99.90
7704;DHT22;3894;49.700;10.770;2023-04-01T02:29:26;9.00;99.90
7704;DHT22;3894;49.700;10.770;2023-04-01T02:31:53;9.00;99.90
7704;DHT22;3894;49.700;10.770;2023-04-01T02:34:20;9.00;99.90
7704;DHT22;3894;49.700;10.770;2023-04-01T02:36:48;9.00;99.90
7704;DHT22;3894;49.700;10.770;2023-04-01T02:39:15;9.00;99.90
7704;DHT22;3894;49.700;10.770;2023-04-01T02:41:42;9.00;99.90
7704;DHT22;3894;49.700;10.770;2023-04-01T02:44:09;8.90;99.90
7704;DHT22;3894;49.700;10.770;2023-04-01T02:46:35;8.90;99.90
7704;DHT22;3894;49.700;10.770;2023-04-01T02:49:01;8.90;99.90
7704;DHT22;3894;49.700;10.770;2023-04-01T02:51:26;8.90;99.90
7704;DHT22;3894;49.700;10.770;2023-04-01T02:53:52;8.90;99.90
7704;DHT22;3894;49.700;10.770;2023-04-01T02:56:17;8.90;99.90
7704;DHT22;3894;49.700;10.770;2023-04-01T02:58:45;8.90;99.90
7704;DHT22;3894;49.700;10.770;2023-04-01T03:01:10;8.90;99.90
7704;DHT22;3894;49.700;10.770;2023-04-01T03:03:36;8.90;99.90
7704;DHT22;3894;49.700;10.770;2023-04-01T03:06:11;8.90;99.90
7704;DHT22;3894;49.700;10.770;2023-04-01T03:08:37;8.90;99.90
7704;DHT22;3894;49.700;10.770;2023-04-01T03:11:03;8.90;99.90
7704;DHT22;3894;49.700;10.770;2023-04-01T03:13:29;8.90;99.90
7704;DHT22;3894;49.700;10.770;2023-04-01T03:15:54;8.90;99.90
7704;DHT22;3894;49.700;10.770;2023-04-01T03:18:20;8.90;99.90
7704;DHT22;3894;49.700;10.770;2023-04-01T03:20:46;8.90;99.90
7704;DHT22;3894;49.700;10.770;2023-04-01T03:23:11;8.90;99.90
7704;DHT22;3894;49.700;10.770;2023-04-01T03:25:37;8.90;99.90
7704;DHT22;3894;49.700;10.770;2023-04-01T03:28:03;8.90;99.90
7704;DHT22;3894;49.700;10.770;2023-04-01T03:30:29;8.90;99.90
7704;DHT22;3894;49.700;10.770;2023-04-01T03:32:58;8.90;99.90
7704;DHT22;3894;49.700;10.770;2023-04-01T03:35:25;8.90;99.90
7704;DHT22;3894;49.700;10.770;2023-04-01T03:37:51;8.90;99.90
7704;DHT22;3894;49.700;10.770;2023-04-01T03:40:17;8.90;99.90
7704;DHT22;3894;49.700;10.770;2023-04-01T03:42:43;8.90;99.90
7704;DHT22;3894;49.700;10.770;2023-04-01T03:45:09;9.00;99.90
7704;DHT22;3894;49.700;10.770;2023-04-01T03:47:37;9.00;99.90
7704;DHT22;3894;49.700;10.770;2023-04-01T03:50:03;9.00;99.90
7704;DHT22;3894;49.700;10.770;2023-04-01T03:52:29;9.00;99.90
7704;DHT22;3894;49.700;10.770;2023-04-01T03:54:54;9.00;99.90
7704;DHT22;3894;49.700;10.770;2023-04-01T03:57:20;9.00;99.90
7704;DHT22;3894;49.700;10.770;2023-04-01T03:59:46;8.90;99.90
7704;DHT22;3894;49.700;10.770;2023-04-01T04:02:11;8.90;99.90
7704;DHT22;3894;49.700;10.770;2023-04-01T04:04:37;8.90;99.90
7704;DHT22;3894;49.700;10.770;2023-04-01T04:07:02;8.90;99.90
7704;DHT22;3894;49.700;10.770;2023-04-01T04:09:30;8.90;99.90
7704;DHT22;3894;49.700;10.770;2023-04-01T04:11:56;8.90;99.90
7704;DHT22;3894;49.700;10.770;2023-04-01T04:14:22;8.90;99.90
7704;DHT22;3894;49.700;10.770;2023-04-01T04:16:48;8.90;99.90
7704;DHT22;3894;49.700;10.770;2023-04-01T04:19:14;8.90;99.90
7704;DHT22;3894;49.700;10.770;2023-04-01T04:21:41;8.80;99.90
7704;DHT22;3894;49.700;10.770;2023-04-01T04:24:07;8.80;99.90
7704;DHT22;3894;49.700;10.770;2023-04-01T04:26:33;8.80;99.90
7704;DHT22;3894;49.700;10.770;2023-04-01T04:28:59;8.80;99.90
7704;DHT22;3894;49.700;10.770;2023-04-01T04:31:26;8.70;99.90
7704;DHT22;3894;49.700;10.770;2023-04-01T04:33:52;8.70;99.90
7704;DHT22;3894;49.700;10.770;2023-04-01T04:36:18;8.70;99.90
7704;DHT22;3894;49.700;10.770;2023-04-01T04:38:44;8.70;99.90
7704;DHT22;3894;49.700;10.770;2023-04-01T04:41:11;8.60;99.90
7704;DHT22;3894;49.700;10.770;2023-04-01T04:43:38;8.60;99.90
7704;DHT22;3894;49.700;10.770;2023-04-01T04:46:08;8.60;99.90
7704;DHT22;3894;49.700;10.770;2023-04-01T04:48:34;8.60;99.90
7704;DHT22;3894;49.700;10.770;2023-04-01T04:51:01;8.60;99.90
7704;DHT22;3894;49.700;10.770;2023-04-01T04:53:27;8.60;99.90
7704;DHT22;3894;49.700;10.770;2023-04-01T04:55:52;8.60;99.90
7704;DHT22;3894;49.700;10.770;2023-04-01T04:58:18;8.60;99.90
7704;DHT22;3894;49.700;10.770;2023-04-01T05:00:44;8.60;99.90
7704;DHT22;3894;49.700;10.770;2023-04-01T05:03:10;8.60;99.90
7704;DHT22;3894;49.700;10.770;2023-04-01T05:05:36;8.60;99.90
7704;DHT22;3894;49.700;10.770;2023-04-01T05:08:02;8.60;99.90
7704;DHT22;3894;49.700;10.770;2023-04-01T05:10:28;8.60;99.90
7704;DHT22;3894;49.700;10.770;2023-04-01T05:12:54;8.50;99.90
7704;DHT22;3894;49.700;10.770;2023-04-01T05:15:20;8.50;99.90
7704;DHT22;3894;49.700;10.770;2023-04-01T05:17:45;8.50;99.90
7704;DHT22;3894;49.700;10.770;2023-04-01T05:20:12;8.50;99.90
7704;DHT22;3894;49.700;10.770;2023-04-01T05:22:39;8.50;99.90
7704;DHT22;3894;49.700;10.770;2023-04-01T05:25:05;8.40;99.90
7704;DHT22;3894;49.700;10.770;2023-04-01T05:27:30;8.40;99.90
7704;DHT22;3894;49.700;10.770;2023-04-01T05:29:57;8.40;99.90
7704;DHT22;3894;49.700;10.770;2023-04-01T05:32:22;8.40;99.90
7704;DHT22;3894;49.700;10.770;2023-04-01T05:34:51;8.40;99.90
7704;DHT22;3894;49.700;10.770;2023-04-01T05:37:17;8.40;99.90
7704;DHT22;3894;49.700;10.770;2023-04-01T05:39:43;8.40;99.90
7704;DHT22;3894;49.700;10.770;2023-04-01T05:42:08;8.40;99.90
7704;DHT22;3894;49.700;10.770;2023-04-01T05:44:34;8.40;99.90
7704;DHT22;3894;49.700;10.770;2023-04-01T05:47:00;8.40;99.90
7704;DHT22;3894;49.700;10.770;2023-04-01T05:49:26;8.40;99.90
7704;DHT22;3894;49.700;10.770;2023-04-01T05:51:52;8.40;99.90
7704;DHT22;3894;49.700;10.770;2023-04-01T05:54:18;8.40;99.90
7704;DHT22;3894;49.700;10.770;2023-04-01T05:56:43;8.40;99.90
7704;DHT22;3894;49.700;10.770;2023-04-01T05:59:11;8.40;99.90
7704;DHT22;3894;49.700;10.770;2023-04-01T06:01:36;8.40;99.90
7704;DHT22;3894;49.700;10.770;2023-04-01T06:04:02;8.50;99.90
7704;DHT22;3894;49.700;10.770;2023-04-01T06:06:29;8.50;99.90
7704;DHT22;3894;49.700;10.770;2023-04-01T06:09:04;8.50;99.90
7704;DHT22;3894;49.700;10.770;2023-04-01T06:15:43;8.60;99.90
7704;DHT22;3894;49.700;10.770;2023-04-01T06:18:15;8.60;99.90
7704;DHT22;3894;49.700;10.770;2023-04-01T06:29:27;8.60;99.90
7704;DHT22;3894;49.700;10.770;2023-04-01T06:32:05;8.70;99.90
7704;DHT22;3894;49.700;10.770;2023-04-01T06:40:38;8.70;99.90
7704;DHT22;3894;49.700;10.770;2023-04-01T06:43:14;8.70;99.90
7704;DHT22;3894;49.700;10.770;2023-04-01T06:45:55;8.70;99.90
7704;DHT22;3894;49.700;10.770;2023-04-01T06:53:58;8.80;99.90
7704;DHT22;3894;49.700;10.770;2023-04-01T06:56:28;8.80;99.90
7704;DHT22;3894;49.700;10.770;2023-04-01T07:02:05;8.80;99.90
7704;DHT22;3894;49.700;10.770;2023-04-01T07:04:40;8.80;99.90
7704;DHT22;3894;49.700;10.770;2023-04-01T07:07:28;8.90;99.90
7704;DHT22;3894;49.700;10.770;2023-04-01T07:09:56;8.90;99.90
7704;DHT22;3894;49.700;10.770;2023-04-01T07:12:57;8.90;99.90
7704;DHT22;3894;49.700;10.770;2023-04-01T07:18:22;8.90;99.90
7704;DHT22;3894;49.700;10.770;2023-04-01T07:20:49;9.00;99.90
7704;DHT22;3894;49.700;10.770;2023-04-01T07:23:22;9.00;99.90
7704;DHT22;3894;49.700;10.770;2023-04-01T07:25:53;9.00;99.90
7704;DHT22;3894;49.700;10.770;2023-04-01T07:28:20;9.00;99.90
7704;DHT22;3894;49.700;10.770;2023-04-01T07:36:44;9.10;99.90
7704;DHT22;3894;49.700;10.770;2023-04-01T07:44:46;9.20;99.90
7704;DHT22;3894;49.700;10.770;2023-04-01T07:57:49;9.50;99.90
7704;DHT22;3894;49.700;10.770;2023-04-01T08:00:21;9.50;99.90
7704;DHT22;3894;49.700;10.770;2023-04-01T08:13:40;9.60;99.90
7704;DHT22;3894;49.700;10.770;2023-04-01T08:19:00;9.60;99.90
7704;DHT22;3894;49.700;10.770;2023-04-01T08:21:39;9.50;99.90
7704;DHT22;3894;49.700;10.770;2023-04-01T08:24:41;9.50;99.90
7704;DHT22;3894;49.700;10.770;2023-04-01T08:27:35;9.50;99.90
7704;DHT22;3894;49.700;10.770;2023-04-01T08:30:25;9.50;99.90
7704;DHT22;3894;49.700;10.770;2023-04-01T08:38:46;9.60;99.90
7704;DHT22;3894;49.700;10.770;2023-04-01T08:44:11;9.50;99.90
7704;DHT22;3894;49.700;10.770;2023-04-01T08:49:56;9.50;99.90
7704;DHT22;3894;49.700;10.770;2023-04-01T08:56:25;9.40;99.90
7704;DHT22;3894;49.700;10.770;2023-04-01T09:04:25;9.40;99.90
7704;DHT22;3894;49.700;10.770;2023-04-01T09:23:46;9.50;99.90
7704;DHT22;3894;49.700;10.770;2023-04-01T09:32:31;9.50;99.90
7704;DHT22;3894;49.700;10.770;2023-04-01T09:35:25;9.50;99.90
7704;DHT22;3894;49.700;10.770;2023-04-01T09:38:00;9.50;99.90
7704;DHT22;3894;49.700;10.770;2023-04-01T09:43:23;9.60;99.90
7704;DHT22;3894;49.700;10.770;2023-04-01T09:46:10;9.70;99.90
7704;DHT22;3894;49.700;10.770;2023-04-01T09:54:12;9.80;99.90
7704;DHT22;3894;49.700;10.770;2023-04-01T09:57:12;9.80;99.90
7704;DHT22;3894;49.700;10.770;2023-04-01T10:17:18;9.30;99.90
7704;DHT22;3894;49.700;10.770;2023-04-01T10:23:35;9.50;99.90
7704;DHT22;3894;49.700;10.770;2023-04-01T10:29:01;9.50;99.90
7704;DHT22;3894;49.700;10.770;2023-04-01T10:37:37;9.30;99.90
7704;DHT22;3894;49.700;10.770;2023-04-01T10:43:58;9.30;99.90
7704;DHT22;3894;49.700;10.770;2023-04-01T10:46:41;9.20;99.90
7704;DHT22;3894;49.700;10.770;2023-04-01T10:54:58;9.20;99.90
7704;DHT22;3894;49.700;10.770;2023-04-01T11:09:20;9.40;99.90
7704;DHT22;3894;49.700;10.770;2023-04-01T11:23:08;9.50;99.90
7704;DHT22;3894;49.700;10.770;2023-04-01T11:33:49;9.30;99.90
7704;DHT22;3894;49.700;10.770;2023-04-01T11:39:27;9.30;99.90
7704;DHT22;3894;49.700;10.770;2023-04-01T11:47:56;9.40;99.90
7704;DHT22;3894;49.700;10.770;2023-04-01T12:15:34;9.60;99.90
7704;DHT22;3894;49.700;10.770;2023-04-01T12:21:36;9.70;99.90
7704;DHT22;3894;49.700;10.770;2023-04-01T12:27:09;9.60;99.90
7704;DHT22;3894;49.700;10.770;2023-04-01T12:40:32;9.90;99.90
7704;DHT22;3894;49.700;10.770;2023-04-01T12:49:10;9.90;99.90
7704;DHT22;3894;49.700;10.770;2023-04-01T13:00:35;9.80;99.90
7704;DHT22;3894;49.700;10.770;2023-04-01T13:09:15;9.80;99.90
7704;DHT22;3894;49.700;10.770;2023-04-01T13:12:16;9.70;99.90
7704;DHT22;3894;49.700;10.770;2023-04-01T13:17:36;9.70;99.90
7704;DHT22;3894;49.700;10.770;2023-04-01T13:20:16;9.70;99.90
7704;DHT22;3894;49.700;10.770;2023-04-01T13:23:31;9.80;99.90
7704;DHT22;3894;49.700;10.770;2023-04-01T13:25:42;9.80;99.90
7704;DHT22;3894;49.700;10.770;2023-04-01T13:28:25;9.80;99.90
7704;DHT22;3894;49.700;10.770;2023-04-01T13:31:04;9.70;99.90
7704;DHT22;3894;49.700;10.770;2023-04-01T13:42:27;9.70;99.90
7704;DHT22;3894;49.700;10.770;2023-04-01T13:45:00;9.80;99.90
7704;DHT22;3894;49.700;10.770;2023-04-01T13:53:18;9.80;99.90
7704;DHT22;3894;49.700;10.770;2023-04-01T13:56:13;9.70;99.90
7704;DHT22;3894;49.700;10.770;2023-04-01T13:59:28;9.80;99.90
7704;DHT22;3894;49.700;10.770;2023-04-01T14:02:16;9.80;99.90
7704;DHT22;3894;49.700;10.770;2023-04-01T14:13:25;9.70;99.90
7704;DHT22;3894;49.700;10.770;2023-04-01T14:16:47;9.70;99.90
7704;DHT22;3894;49.700;10.770;2023-04-01T14:22:20;9.70;99.90
7704;DHT22;3894;49.700;10.770;2023-04-01T14:41:16;9.50;99.90
7704;DHT22;3894;49.700;10.770;2023-04-01T14:43:51;9.50;99.90
7704;DHT22;3894;49.700;10.770;2023-04-01T14:51:41;9.60;99.90
7704;DHT22;3894;49.700;10.770;2023-04-01T14:56:44;9.70;99.90
7704;DHT22;3894;49.700;10.770;2023-04-01T15:01:53;9.70;99.90
7704;DHT22;3894;49.700;10.770;2023-04-01T15:06:55;9.60;99.90
7704;DHT22;3894;49.700;10.770;2023-04-01T15:09:42;9.70;99.90
7704;DHT22;3894;49.700;10.770;2023-04-01T15:20:07;9.80;99.90
7704;DHT22;3894;49.700;10.770;2023-04-01T15:23:01;9.80;99.90
7704;DHT22;3894;49.700;10.770;2023-04-01T15:28:38;9.70;99.90
7704;DHT22;3894;49.700;10.770;2023-04-01T15:37:01;9.60;99.90
7704;DHT22;3894;49.700;10.770;2023-04-01T15:39:49;9.60;99.90
7704;DHT22;3894;49.700;10.770;2023-04-01T15:45:18;9.50;99.90
7704;DHT22;3894;49.700;10.770;2023-04-01T15:47:59;9.40;99.90
7704;DHT22;3894;49.700;10.770;2023-04-01T15:50:50;9.40;99.90
7704;DHT22;3894;49.700;10.770;2023-04-01T15:59:20;9.30;99.90
7704;DHT22;3894;49.700;10.770;2023-04-01T16:04:50;9.30;99.90
7704;DHT22;3894;49.700;10.770;2023-04-01T16:07:22;9.20;99.90
7704;DHT22;3894;49.700;10.770;2023-04-01T16:31:46;9.10;99.90
7704;DHT22;3894;49.700;10.770;2023-04-01T16:34:43;9.10;99.90
7704;DHT22;3894;49.700;10.770;2023-04-01T16:37:20;9.10;99.90
7704;DHT22;3894;49.700;10.770;2023-04-01T16:40:00;9.10;99.90
7704;DHT22;3894;49.700;10.770;2023-04-01T16:42:55;9.10;99.90
7704;DHT22;3894;49.700;10.770;2023-04-01T16:45:40;9.10;99.90
7704;DHT22;3894;49.700;10.770;2023-04-01T16:48:18;9.10;99.90
7704;DHT22;3894;49.700;10.770;2023-04-01T16:50:59;9.10;99.90
7704;DHT22;3894;49.700;10.770;2023-04-01T16:53:41;9.10;99.90
7704;DHT22;3894;49.700;10.770;2023-04-01T16:56:23;9.10;99.90
7704;DHT22;3894;49.700;10.770;2023-04-01T17:04:45;9.10;99.90
7704;DHT22;3894;49.700;10.770;2023-04-01T17:07:40;9.10;99.90
7704;DHT22;3894;49.700;10.770;2023-04-01T17:10:25;9.10;99.90
7704;DHT22;3894;49.700;10.770;2023-04-01T17:25:12;9.10;99.90
7704;DHT22;3894;49.700;10.770;2023-04-01T17:39:55;9.00;99.90
7704;DHT22;3894;49.700;10.770;2023-04-01T17:46:23;8.90;99.90
7704;DHT22;3894;49.700;10.770;2023-04-01T17:49:19;8.90;99.90
7704;DHT22;3894;49.700;10.770;2023-04-01T17:57:32;8.90;99.90
7704;DHT22;3894;49.700;10.770;2023-04-01T18:00:28;8.90;99.90
7704;DHT22;3894;49.700;10.770;2023-04-01T18:02:57;8.80;99.90
7704;DHT22;3894;49.700;10.770;2023-04-01T18:08:26;8.90;99.90
7704;DHT22;3894;49.700;10.770;2023-04-01T18:16:47;8.80;99.90
7704;DHT22;3894;49.700;10.770;2023-04-01T18:22:21;8.80;99.90
7704;DHT22;3894;49.700;10.770;2023-04-01T18:27:43;8.80;99.90
7704;DHT22;3894;49.700;10.770;2023-04-01T18:30:28;8.80;99.90
7704;DHT22;3894;49.700;10.770;2023-04-01T18:33:03;8.80;99.90
7704;DHT22;3894;49.700;10.770;2023-04-01T18:35:50;8.80;99.90
7704;DHT22;3894;49.700;10.770;2023-04-01T18:41:13;8.80;99.90
7704;DHT22;3894;49.700;10.770;2023-04-01T18:52:21;8.80;99.90
7704;DHT22;3894;49.700;10.770;2023-04-01T18:55:22;8.80;99.90
7704;DHT22;3894;49.700;10.770;2023-04-01T18:57:55;8.80;99.90
7704;DHT22;3894;49.700;10.770;2023-04-01T19:00:28;8.80;99.90
7704;DHT22;3894;49.700;10.770;2023-04-01T19:03:30;8.80;99.90
7704;DHT22;3894;49.700;10.770;2023-04-01T19:06:15;8.80;99.90
7704;DHT22;3894;49.700;10.770;2023-04-01T19:08:47;8.80;99.90
7704;DHT22;3894;49.700;10.770;2023-04-01T19:11:30;8.70;99.90
7704;DHT22;3894;49.700;10.770;2023-04-01T19:16:43;8.70;99.90
7704;DHT22;3894;49.700;10.770;2023-04-01T19:30:27;8.70;99.90
7704;DHT22;3894;49.700;10.770;2023-04-01T19:36:10;8.70;99.90
7704;DHT22;3894;49.700;10.770;2023-04-01T19:38:40;8.70;99.90
7704;DHT22;3894;49.700;10.770;2023-04-01T19:43:53;8.70;99.90
7704;DHT22;3894;49.700;10.770;2023-04-01T19:46:40;8.70;99.90
7704;DHT22;3894;49.700;10.770;2023-04-01T20:00:25;8.70;99.90
7704;DHT22;3894;49.700;10.770;2023-04-01T20:14:27;8.70;99.90
7704;DHT22;3894;49.700;10.770;2023-04-01T20:17:11;8.70;99.90
7704;DHT22;3894;49.700;10.770;2023-04-01T20:19:59;8.70;99.90
7704;DHT22;3894;49.700;10.770;2023-04-01T20:25:22;8.70;99.90
7704;DHT22;3894;49.700;10.770;2023-04-01T20:33:53;8.70;99.90
7704;DHT22;3894;49.700;10.770;2023-04-01T20:36:27;8.70;99.90
7704;DHT22;3894;49.700;10.770;2023-04-01T20:42:04;8.70;99.90
7704;DHT22;3894;49.700;10.770;2023-04-01T20:44:56;8.70;99.90
7704;DHT22;3894;49.700;10.770;2023-04-01T20:52:41;8.70;99.90
7704;DHT22;3894;49.700;10.770;2023-04-01T21:03:48;8.70;99.90
7704;DHT22;3894;49.700;10.770;2023-04-01T21:06:44;8.70;99.90
7704;DHT22;3894;49.700;10.770;2023-04-01T21:09:38;8.70;99.90
7704;DHT22;3894;49.700;10.770;2023-04-01T21:20:28;8.70;99.90
7704;DHT22;3894;49.700;10.770;2023-04-01T21:26:01;8.70;99.90
7704;DHT22;3894;49.700;10.770;2023-04-01T21:37:18;8.60;99.90
7704;DHT22;3894;49.700;10.770;2023-04-01T21:50:39;8.50;99.90
7704;DHT22;3894;49.700;10.770;2023-04-01T22:06:56;8.50;99.90
7704;DHT22;3894;49.700;10.770;2023-04-01T22:09:31;8.40;99.90
7704;DHT22;3894;49.700;10.770;2023-04-01T22:12:14;8.40;99.90
7704;DHT22;3894;49.700;10.770;2023-04-01T22:14:48;8.40;99.90
7704;DHT22;3894;49.700;10.770;2023-04-01T22:31:11;8.50;99.90
7704;DHT22;3894;49.700;10.770;2023-04-01T22:33:52;8.50;99.90
7704;DHT22;3894;49.700;10.770;2023-04-01T22:47:37;8.40;99.90
7704;DHT22;3894;49.700;10.770;2023-04-01T22:55:40;8.40;99.90
7704;DHT22;3894;49.700;10.770;2023-04-01T22:58:21;8.40;99.90
7704;DHT22;3894;49.700;10.770;2023-04-01T23:00:54;8.40;99.90
7704;DHT22;3894;49.700;10.770;2023-04-01T23:03:28;8.40;99.90
7704;DHT22;3894;49.700;10.770;2023-04-01T23:05:57;8.40;99.90
7704;DHT22;3894;49.700;10.770;2023-04-01T23:11:32;8.40;99.90
7704;DHT22;3894;49.700;10.770;2023-04-01T23:14:21;8.40;99.90
7704;DHT22;3894;49.700;10.770;2023-04-01T23:19:26;8.40;99.90
7704;DHT22;3894;49.700;10.770;2023-04-01T23:24:46;8.30;99.90
7704;DHT22;3894;49.700;10.770;2023-04-01T23:27:39;8.30;99.90
7704;DHT22;3894;49.700;10.770;2023-04-01T23:36:14;8.30;99.90
7704;DHT22;3894;49.700;10.770;2023-04-01T23:38:42;8.30;99.90
7704;DHT22;3894;49.700;10.770;2023-04-01T23:41:32;8.30;99.90
7704;DHT22;3894;49.700;10.770;2023-04-01T23:43:59;8.30;99.90
7704;DHT22;3894;49.700;10.770;2023-04-01T23:46:26;8.30;99.90
7704;DHT22;3894;49.700;10.770;2023-04-01T23:48:52;8.30;99.90
7704;DHT22;3894;49.700;10.770;2023-04-01T23:51:27;8.30;99.90
7704;DHT22;3894;49.700;10.770;2023-04-01T23:54:03;8.30;99.90
7704;DHT22;3894;49.700;10.770;2023-04-01T23:56:43;8.30;99.90
7704;DHT22;3894;49.700;10.770;2023-04-01T23:59:17;8.30;99.90
